createdAt,value
2023-10-02T00:01:50.312Z,22.17
2023-10-02T00:04:17.237Z,22.10
2023-10-02T00:06:47.384Z,21.72
2023-10-02T00:09:17.050Z,21.76
2023-10-02T00:11:43.967Z,21.84
2023-10-02T00:14:15.889Z,21.86
2023-10-02T00:16:42.768Z,21.77
2023-10-02T00:19:12.948Z,21.69
2023-10-02T00:21:39.839Z,21.27
2023-10-02T00:24:06.883Z,21.17
2023-10-02T00:26:33.688Z,21.27
2023-10-02T00:29:04.086Z,21.16
2023-10-02T00:31:30.917Z,21.42
2023-10-02T00:33:57.892Z,21.68
2023-10-02T00:36:24.761Z,21.51
2023-10-02T00:38:56.509Z,21.44
2023-10-02T00:41:23.150Z,20.72
2023-10-02T00:44:02.920Z,20.68
2023-10-02T00:46:36.169Z,21.04
2023-10-02T00:49:02.922Z,20.98
2023-10-02T00:51:29.849Z,20.94
2023-10-02T00:53:58.576Z,20.53
2023-10-02T00:56:25.615Z,20.89
2023-10-02T00:59:03.614Z,21.13
2023-10-02T01:01:38.341Z,21.28
2023-10-02T01:04:17.785Z,21.37
2023-10-02T01:06:50.037Z,21.38
2023-10-02T01:09:17.866Z,21.39
2023-10-02T01:11:49.131Z,20.99
2023-10-02T01:14:16.154Z,20.91
2023-10-02T01:16:43.289Z,21.05
2023-10-02T01:19:11.526Z,21.06
2023-10-02T01:21:42.711Z,21.21
2023-10-02T01:24:09.582Z,21.26
2023-10-02T01:26:42.892Z,21.27
2023-10-02T01:29:11.741Z,21.12
2023-10-02T01:31:39.785Z,21.03
2023-10-02T01:34:06.648Z,20.97
2023-10-02T01:36:34.440Z,20.88
2023-10-02T01:39:03.752Z,20.75
2023-10-02T01:41:39.646Z,20.66
2023-10-02T01:44:07.485Z,20.52
2023-10-02T01:46:34.820Z,20.78
2023-10-02T01:49:01.716Z,20.61
2023-10-02T01:51:28.993Z,20.37
2023-10-02T01:54:04.200Z,20.74
2023-10-02T01:56:33.058Z,20.87
2023-10-02T01:59:03.140Z,20.47
2023-10-02T02:01:30.054Z,20.82
2023-10-02T02:03:56.910Z,20.78
2023-10-02T02:06:25.087Z,20.84
2023-10-02T02:08:53.417Z,20.54
2023-10-02T02:11:24.685Z,20.69
2023-10-02T02:13:55.498Z,20.63
2023-10-02T02:16:31.977Z,20.66
2023-10-02T02:19:06.213Z,20.68
2023-10-02T02:21:36.613Z,20.26
2023-10-02T02:24:04.780Z,20.74
2023-10-02T02:26:39.324Z,20.69
2023-10-02T02:29:10.123Z,20.99
2023-10-02T02:31:37.317Z,21.12
2023-10-02T02:34:05.988Z,21.03
2023-10-02T02:36:33.516Z,21.01
2023-10-02T02:39:00.251Z,21.05
2023-10-02T02:41:29.477Z,21.11
2023-10-02T02:43:56.336Z,21.10
2023-10-02T02:46:23.263Z,20.95
2023-10-02T02:48:50.165Z,20.87
2023-10-02T02:51:21.940Z,20.86
2023-10-02T02:53:48.690Z,20.80
2023-10-02T02:56:20.612Z,20.72
2023-10-02T02:58:53.708Z,20.91
2023-10-02T03:01:22.451Z,20.92
2023-10-02T03:03:53.890Z,20.96
2023-10-02T03:06:21.727Z,20.89
2023-10-02T03:08:56.937Z,20.98
2023-10-02T03:11:33.061Z,20.92
2023-10-02T03:14:04.079Z,20.76
2023-10-02T03:16:31.227Z,20.66
2023-10-02T03:19:04.103Z,20.84
2023-10-02T03:21:30.856Z,20.85
2023-10-02T03:24:06.733Z,20.92
2023-10-02T03:26:34.169Z,20.90
2023-10-02T03:29:02.524Z,20.60
2023-10-02T03:31:38.170Z,20.80
2023-10-02T03:34:13.230Z,20.82
2023-10-02T03:36:41.095Z,20.83
2023-10-02T03:39:07.905Z,20.96
2023-10-02T03:41:43.036Z,20.69
2023-10-02T03:44:19.692Z,20.53
2023-10-02T03:46:54.259Z,20.59
2023-10-02T03:49:21.366Z,20.39
2023-10-02T03:51:48.235Z,20.58
2023-10-02T03:54:15.569Z,20.39
2023-10-02T03:56:42.404Z,20.47
2023-10-02T03:59:09.326Z,20.61
2023-10-02T04:01:36.295Z,20.74
2023-10-02T04:04:08.687Z,20.84
2023-10-02T04:06:35.581Z,20.75
2023-10-02T04:09:09.648Z,20.57
2023-10-02T04:11:43.557Z,20.38
2023-10-02T04:14:19.193Z,20.60
2023-10-02T04:17:00.944Z,20.15
2023-10-02T04:19:35.959Z,20.53
2023-10-02T04:22:11.264Z,20.39
2023-10-02T04:24:46.885Z,20.38
2023-10-02T04:27:15.533Z,20.34
2023-10-02T04:29:42.346Z,20.35
2023-10-02T04:32:13.891Z,20.47
2023-10-02T04:34:41.431Z,20.50
2023-10-02T04:37:08.277Z,20.30
2023-10-02T04:39:35.044Z,20.48
2023-10-02T04:42:04.579Z,20.57
2023-10-02T04:44:31.307Z,20.45
2023-10-02T04:46:58.351Z,20.47
2023-10-02T04:49:25.272Z,20.42
2023-10-02T04:51:51.977Z,20.38
2023-10-02T04:54:18.920Z,20.49
2023-10-02T04:56:45.732Z,20.40
2023-10-02T04:59:12.734Z,20.35
2023-10-02T05:01:39.774Z,20.44
2023-10-02T05:04:06.714Z,20.37
2023-10-02T05:06:33.997Z,19.94
2023-10-02T05:09:07.478Z,20.29
2023-10-02T05:11:35.258Z,20.41
2023-10-02T05:14:02.070Z,20.33
2023-10-02T05:19:48.835Z,20.41
2023-10-02T05:22:18.006Z,20.30
2023-10-02T05:24:44.841Z,20.31
2023-10-02T05:27:11.588Z,20.35
2023-10-02T05:29:38.475Z,20.22
2023-10-02T05:32:05.558Z,20.20
2023-10-02T05:34:32.523Z,20.19
2023-10-02T05:36:59.345Z,20.21
2023-10-02T05:39:26.319Z,20.16
2023-10-02T05:41:53.130Z,19.68
2023-10-02T05:44:20.155Z,19.46
2023-10-02T05:46:50.725Z,19.84
2023-10-02T05:49:22.744Z,20.08
2023-10-02T05:51:55.159Z,20.00
2023-10-02T05:54:21.948Z,19.62
2023-10-02T05:56:49.161Z,19.73
2023-10-02T05:59:16.037Z,20.04
2023-10-02T06:01:42.969Z,20.22
2023-10-02T06:04:10.606Z,20.35
2023-10-02T06:06:37.981Z,20.32
2023-10-02T06:09:06.075Z,20.41
2023-10-02T06:11:32.886Z,20.30
2023-10-02T06:14:03.225Z,20.23
2023-10-02T06:16:31.407Z,20.25
2023-10-02T06:18:58.755Z,19.73
2023-10-02T06:21:26.566Z,19.43
2023-10-02T06:23:53.559Z,19.87
2023-10-02T06:26:20.476Z,19.36
2023-10-02T06:28:47.378Z,19.19
2023-10-02T06:31:14.502Z,19.21
2023-10-02T06:33:42.930Z,19.14
2023-10-02T06:36:12.680Z,19.13
2023-10-02T06:38:42.165Z,19.10
2023-10-02T06:41:18.302Z,19.17
2023-10-02T06:43:53.531Z,19.19
2023-10-02T06:46:26.380Z,19.17
2023-10-02T06:48:53.251Z,19.17
2023-10-02T06:51:19.991Z,19.18
2023-10-02T06:53:46.878Z,19.16
2023-10-02T06:56:14.963Z,19.18
2023-10-02T06:58:43.374Z,19.29
2023-10-02T07:01:15.656Z,19.48
2023-10-02T07:03:43.441Z,19.52
2023-10-02T07:06:10.335Z,19.68
2023-10-02T07:08:37.225Z,19.85
2023-10-02T07:11:13.117Z,20.27
2023-10-02T07:13:40.166Z,20.65
2023-10-02T07:16:07.022Z,20.99
2023-10-02T07:18:34.033Z,20.95
2023-10-02T07:21:00.950Z,21.45
2023-10-02T07:23:27.952Z,21.51
2023-10-02T07:25:54.847Z,21.68
2023-10-02T07:28:22.137Z,21.28
2023-10-02T07:30:50.055Z,21.69
2023-10-02T07:33:17.194Z,21.41
2023-10-02T07:35:44.314Z,22.21
2023-10-02T07:38:14.301Z,22.43
2023-10-02T07:40:42.827Z,22.49
2023-10-02T07:43:09.812Z,22.81
2023-10-02T07:45:36.617Z,23.03
2023-10-02T07:48:03.651Z,23.08
2023-10-02T07:50:30.538Z,23.21
2023-10-02T07:52:57.366Z,23.21
2023-10-02T07:55:24.324Z,23.25
2023-10-02T07:57:52.507Z,23.15
2023-10-02T08:00:22.229Z,23.15
2023-10-02T08:02:50.202Z,23.28
2023-10-02T08:05:17.355Z,23.32
2023-10-02T08:07:47.308Z,23.35
2023-10-02T08:10:15.475Z,22.66
2023-10-02T08:12:42.308Z,22.96
2023-10-02T08:15:14.152Z,23.38
2023-10-02T08:17:44.015Z,23.30
2023-10-02T08:20:11.314Z,23.42
2023-10-02T08:22:38.442Z,23.29
2023-10-02T08:25:06.893Z,22.75
2023-10-02T08:27:37.405Z,23.16
2023-10-02T08:30:04.387Z,23.22
2023-10-02T08:32:31.346Z,23.21
2023-10-02T08:34:59.516Z,23.24
2023-10-02T08:37:26.680Z,23.23
2023-10-02T08:39:55.949Z,23.17
2023-10-02T08:42:23.827Z,23.19
2023-10-02T08:44:50.829Z,23.16
2023-10-02T08:47:17.724Z,23.35
2023-10-02T08:49:45.873Z,23.35
2023-10-02T08:52:12.880Z,23.20
2023-10-02T08:54:39.808Z,23.08
2023-10-02T08:57:08.361Z,23.19
2023-10-02T08:59:41.837Z,22.91
2023-10-02T09:02:17.025Z,23.28
2023-10-02T09:04:46.953Z,23.15
2023-10-02T09:07:24.772Z,22.91
2023-10-02T09:10:10.280Z,22.96
2023-10-02T09:12:37.101Z,23.16
2023-10-02T09:15:10.765Z,23.06
2023-10-02T09:17:51.148Z,23.48
2023-10-02T09:20:18.048Z,23.26
2023-10-02T09:22:59.324Z,23.64
2023-10-02T09:25:26.204Z,23.53
2023-10-02T09:27:55.383Z,23.16
2023-10-02T09:30:27.960Z,23.26
2023-10-02T09:33:09.380Z,23.56
2023-10-02T09:35:57.729Z,23.72
2023-10-02T09:38:29.114Z,23.52
2023-10-02T09:41:03.308Z,23.47
2023-10-02T09:43:34.955Z,23.52
2023-10-02T09:46:05.148Z,23.59
2023-10-02T09:48:34.283Z,23.47
2023-10-02T09:51:04.721Z,23.41
2023-10-02T09:53:36.364Z,23.86
2023-10-02T09:56:14.372Z,23.76
2023-10-02T09:59:05.458Z,23.77
2023-10-02T10:01:35.240Z,23.92
2023-10-02T10:04:02.557Z,24.19
2023-10-02T10:06:29.428Z,24.05
2023-10-02T10:08:56.157Z,24.10
2023-10-02T10:11:23.126Z,23.79
2023-10-02T10:13:52.098Z,24.11
2023-10-02T10:16:18.887Z,23.88
2023-10-02T10:19:01.444Z,24.05
2023-10-02T10:21:45.446Z,24.04
2023-10-02T10:24:31.163Z,24.36
2023-10-02T10:26:58.702Z,24.10
2023-10-02T10:29:48.448Z,24.26
2023-10-02T10:32:18.208Z,24.23
2023-10-02T10:34:59.619Z,24.33
2023-10-02T10:37:55.808Z,24.68
2023-10-02T10:40:39.598Z,24.38
2023-10-02T10:43:06.455Z,24.72
2023-10-02T10:45:36.062Z,24.68
2023-10-02T10:48:03.437Z,24.66
2023-10-02T10:50:31.563Z,24.68
2023-10-02T10:53:01.110Z,24.80
2023-10-02T10:55:28.527Z,24.98
2023-10-02T10:57:55.426Z,24.92
2023-10-02T11:00:22.326Z,25.00
2023-10-02T11:03:05.049Z,25.00
2023-10-02T11:05:31.995Z,25.08
2023-10-02T11:08:03.421Z,24.88
2023-10-02T11:10:31.072Z,24.98
2023-10-02T11:12:57.926Z,25.23
2023-10-02T11:15:26.855Z,24.79
2023-10-02T11:18:14.322Z,24.88
2023-10-02T11:20:41.266Z,25.19
2023-10-02T11:23:08.131Z,25.22
2023-10-02T11:25:34.964Z,24.83
2023-10-02T11:28:08.216Z,24.93
2023-10-02T11:30:35.197Z,25.09
2023-10-02T11:33:02.090Z,24.85
2023-10-02T11:35:31.690Z,24.99
2023-10-02T11:38:01.743Z,25.47
2023-10-02T11:40:28.621Z,25.34
2023-10-02T11:42:55.605Z,25.18
2023-10-02T11:45:22.523Z,25.26
2023-10-02T11:47:50.479Z,25.34
2023-10-02T11:50:17.809Z,25.56
2023-10-02T11:52:44.898Z,25.38
2023-10-02T11:55:12.477Z,25.73
2023-10-02T11:57:39.271Z,25.35
2023-10-02T12:00:06.595Z,25.39
2023-10-02T12:02:33.381Z,25.65
2023-10-02T12:05:00.424Z,25.34
2023-10-02T12:07:27.497Z,25.74
2023-10-02T12:09:54.324Z,25.62
2023-10-02T12:12:21.098Z,25.53
2023-10-02T12:14:47.936Z,25.57
2023-10-02T12:17:16.583Z,25.69
2023-10-02T12:19:43.521Z,25.78
2023-10-02T12:22:10.635Z,25.84
2023-10-02T12:24:41.547Z,25.89
2023-10-02T12:27:08.417Z,25.95
2023-10-02T12:29:35.429Z,26.14
2023-10-02T12:32:02.704Z,26.17
2023-10-02T12:34:30.024Z,25.91
2023-10-02T12:36:57.185Z,26.03
2023-10-02T12:39:25.206Z,25.87
2023-10-02T12:41:52.056Z,26.08
2023-10-02T12:44:18.985Z,25.83
2023-10-02T12:46:45.829Z,25.98
2023-10-02T12:49:13.309Z,25.52
2023-10-02T12:51:43.448Z,25.59
2023-10-02T12:54:10.270Z,26.01
2023-10-02T12:56:37.990Z,26.20
2023-10-02T12:59:05.161Z,26.06
2023-10-02T13:01:32.593Z,25.82
2023-10-02T13:03:59.685Z,26.14
2023-10-02T13:06:28.550Z,26.08
2023-10-02T13:08:55.963Z,25.94
2023-10-02T13:11:26.869Z,26.05
2023-10-02T13:13:54.322Z,26.03
2023-10-02T13:16:25.585Z,26.10
2023-10-02T13:18:52.445Z,26.08
2023-10-02T13:21:19.379Z,26.32
2023-10-02T13:23:47.128Z,26.31
2023-10-02T13:26:16.113Z,25.92
2023-10-02T13:28:44.139Z,26.02
2023-10-02T13:31:14.558Z,26.04
2023-10-02T13:33:48.690Z,26.27
2023-10-02T13:36:22.680Z,26.33
2023-10-02T13:38:55.659Z,26.32
2023-10-02T13:41:22.815Z,26.28
2023-10-02T13:43:50.634Z,26.39
2023-10-02T13:46:24.833Z,26.40
2023-10-02T13:48:53.420Z,26.11
2023-10-02T13:51:21.916Z,26.24
2023-10-02T13:53:49.478Z,26.35
2023-10-02T13:56:19.008Z,26.35
2023-10-02T13:58:55.654Z,26.68
2023-10-02T14:01:25.317Z,26.74
2023-10-02T14:03:56.148Z,26.54
2023-10-02T14:06:25.978Z,26.14
2023-10-02T14:08:53.949Z,26.56
2023-10-02T14:11:25.296Z,26.73
2023-10-02T14:13:58.801Z,26.35
2023-10-02T14:16:26.713Z,26.11
2023-10-02T14:18:54.912Z,25.94
2023-10-02T14:21:23.339Z,26.10
2023-10-02T14:23:54.408Z,26.50
2023-10-02T14:26:26.005Z,26.58
2023-10-02T14:28:53.883Z,26.81
2023-10-02T14:31:29.581Z,26.92
2023-10-02T14:33:56.923Z,26.42
2023-10-02T14:36:23.727Z,26.47
2023-10-02T14:38:50.523Z,26.57
2023-10-02T14:41:17.406Z,26.82
2023-10-02T14:43:44.415Z,26.63
2023-10-02T14:46:18.963Z,26.53
2023-10-02T14:48:47.826Z,26.88
2023-10-02T14:51:16.650Z,26.77
2023-10-02T14:53:43.459Z,26.60
2023-10-02T14:56:10.556Z,26.61
2023-10-02T14:58:37.745Z,26.74
2023-10-02T15:01:10.810Z,26.51
2023-10-02T15:03:37.861Z,26.71
2023-10-02T15:06:04.889Z,26.67
2023-10-02T15:08:31.735Z,26.67
2023-10-02T15:10:58.701Z,26.59
2023-10-02T15:13:25.518Z,26.62
2023-10-02T15:15:52.308Z,26.71
2023-10-02T15:18:19.244Z,26.48
2023-10-02T15:20:46.087Z,26.57
2023-10-02T15:23:13.066Z,26.77
2023-10-02T15:25:40.894Z,26.65
2023-10-02T15:28:07.999Z,26.58
2023-10-02T15:30:36.316Z,26.24
2023-10-02T15:33:11.715Z,26.28
2023-10-02T15:35:47.624Z,26.68
2023-10-02T15:38:16.288Z,26.66
2023-10-02T15:40:45.031Z,26.57
2023-10-02T15:43:12.083Z,26.63
2023-10-02T15:45:42.004Z,26.75
2023-10-02T15:48:09.733Z,26.58
2023-10-02T15:50:39.197Z,26.73
2023-10-02T15:53:08.964Z,26.47
2023-10-02T15:55:36.842Z,26.41
2023-10-02T15:58:04.144Z,26.56
2023-10-02T16:00:31.140Z,26.74
2023-10-02T16:02:59.410Z,26.60
2023-10-02T16:05:28.904Z,26.50
2023-10-02T16:08:12.978Z,26.64
2023-10-02T16:10:48.439Z,26.48
2023-10-02T16:13:35.115Z,26.50
2023-10-02T16:16:04.670Z,26.68
2023-10-02T16:18:31.632Z,26.62
2023-10-02T16:21:07.283Z,26.40
2023-10-02T16:23:41.240Z,26.43
2023-10-02T16:26:16.199Z,26.27
2023-10-02T16:28:43.136Z,26.33
2023-10-02T16:31:26.572Z,26.36
2023-10-02T16:34:06.996Z,26.16
2023-10-02T16:36:43.587Z,26.29
2023-10-02T16:39:16.278Z,26.02
2023-10-02T16:41:52.155Z,26.28
2023-10-02T16:44:24.885Z,26.10
2023-10-02T16:46:59.702Z,26.10
2023-10-02T16:49:26.733Z,26.03
2023-10-02T16:51:54.248Z,25.90
2023-10-02T16:54:26.730Z,25.95
2023-10-02T16:56:53.575Z,26.00
2023-10-02T16:59:20.507Z,25.82
2023-10-02T17:01:47.389Z,25.87
2023-10-02T17:04:14.520Z,25.82
2023-10-02T17:06:41.386Z,25.72
2023-10-02T17:09:08.182Z,25.68
2023-10-02T17:11:35.059Z,25.94
2023-10-02T17:14:02.169Z,25.71
2023-10-02T17:16:29.213Z,25.73
2023-10-02T17:18:56.603Z,25.70
2023-10-02T17:21:30.108Z,25.54
2023-10-02T17:23:57.606Z,25.68
2023-10-02T17:26:24.673Z,25.21
2023-10-02T17:28:51.613Z,25.54
2023-10-02T17:31:22.227Z,25.46
2023-10-02T17:33:49.023Z,25.28
2023-10-02T17:36:15.819Z,25.43
2023-10-02T17:38:42.749Z,25.07
2023-10-02T17:41:09.980Z,25.22
2023-10-02T17:43:36.937Z,25.06
2023-10-02T17:46:06.684Z,25.18
2023-10-02T17:48:34.413Z,25.03
2023-10-02T17:51:01.245Z,24.89
2023-10-02T17:53:28.153Z,24.91
2023-10-02T17:55:59.718Z,25.19
2023-10-02T17:58:26.492Z,24.79
2023-10-02T18:00:53.304Z,24.85
2023-10-02T18:03:20.265Z,24.78
2023-10-02T18:05:49.643Z,24.85
2023-10-02T18:08:16.444Z,24.93
2023-10-02T18:10:47.121Z,25.03
2023-10-02T18:13:13.976Z,24.54
2023-10-02T18:15:44.064Z,24.98
2023-10-02T18:18:11.822Z,24.70
2023-10-02T18:20:44.103Z,24.50
2023-10-02T18:23:11.098Z,24.54
2023-10-02T18:25:39.284Z,24.63
2023-10-02T18:28:09.818Z,24.44
2023-10-02T18:30:36.682Z,24.43
2023-10-02T18:33:03.691Z,24.33
2023-10-02T18:35:30.780Z,24.41
2023-10-02T18:37:57.605Z,24.28
2023-10-02T18:40:24.645Z,24.60
2023-10-02T18:42:51.461Z,24.18
2023-10-02T18:45:18.261Z,24.15
2023-10-02T18:47:48.169Z,24.59
2023-10-02T18:50:18.031Z,24.41
2023-10-02T18:52:45.022Z,24.05
2023-10-02T18:55:12.174Z,24.33
2023-10-02T18:57:39.136Z,24.50
2023-10-02T19:00:07.858Z,24.41
2023-10-02T19:02:34.850Z,24.00
2023-10-02T19:05:03.487Z,23.90
2023-10-02T19:07:30.603Z,23.86
2023-10-02T19:09:57.547Z,24.07
2023-10-02T19:12:32.416Z,23.87
2023-10-02T19:15:00.225Z,24.28
2023-10-02T19:17:27.327Z,23.82
2023-10-02T19:19:54.701Z,23.98
2023-10-02T19:22:21.444Z,24.26
2023-10-02T19:24:48.417Z,24.05
2023-10-02T19:27:15.413Z,23.89
2023-10-02T19:29:42.475Z,23.96
2023-10-02T19:32:09.344Z,24.01
2023-10-02T19:34:39.562Z,24.18
2023-10-02T19:37:06.549Z,24.07
2023-10-02T19:39:39.687Z,23.84
2023-10-02T19:42:10.244Z,23.71
2023-10-02T19:44:39.565Z,23.82
2023-10-02T19:47:06.522Z,23.55
2023-10-02T19:49:33.332Z,23.96
2023-10-02T19:52:00.101Z,24.22
2023-10-02T19:54:27.053Z,24.07
2023-10-02T19:56:53.860Z,24.02
2023-10-02T19:59:20.632Z,23.35
2023-10-02T20:01:47.423Z,23.03
2023-10-02T20:04:14.206Z,23.00
2023-10-02T20:06:41.162Z,23.16
2023-10-02T20:09:08.450Z,23.23
2023-10-02T20:11:37.449Z,23.05
2023-10-02T20:14:05.259Z,22.87
2023-10-02T20:16:40.468Z,23.38
2023-10-02T20:19:11.071Z,23.56
2023-10-02T20:21:37.958Z,22.98
2023-10-02T20:24:07.608Z,23.10
2023-10-02T20:26:34.503Z,23.54
2023-10-02T20:29:01.728Z,23.44
2023-10-02T20:31:31.588Z,23.50
2023-10-02T20:33:58.438Z,23.68
2023-10-02T20:36:25.243Z,23.44
2023-10-02T20:39:01.778Z,23.18
2023-10-02T20:41:32.435Z,23.10
2023-10-02T20:44:02.220Z,23.32
2023-10-02T20:46:29.246Z,23.28
2023-10-02T20:49:04.538Z,23.42
2023-10-02T20:51:33.234Z,23.48
2023-10-02T20:54:01.454Z,23.48
2023-10-02T20:56:28.926Z,23.55
2023-10-02T20:58:58.769Z,23.60
2023-10-02T21:01:25.628Z,23.36
2023-10-02T21:04:00.693Z,22.76
2023-10-02T21:06:28.308Z,23.04
2023-10-02T21:08:56.333Z,23.07
2023-10-02T21:11:23.227Z,23.21
2023-10-02T21:13:50.367Z,23.32
2023-10-02T21:16:17.190Z,23.32
2023-10-02T21:18:47.265Z,23.03
2023-10-02T21:21:23.342Z,23.04
2023-10-02T21:23:50.845Z,23.06
2023-10-02T21:26:17.687Z,22.99
2023-10-02T21:28:44.565Z,22.45
2023-10-02T21:31:11.872Z,22.92
2023-10-02T21:33:38.841Z,23.07
2023-10-02T21:36:07.445Z,22.98
2023-10-02T21:38:36.128Z,23.07
2023-10-02T21:41:16.873Z,23.11
2023-10-02T21:43:48.617Z,23.10
2023-10-02T21:46:15.802Z,23.06
2023-10-02T21:48:42.913Z,22.94
2023-10-02T21:51:12.892Z,22.75
2023-10-02T21:53:43.779Z,22.81
2023-10-02T21:56:10.698Z,22.18
2023-10-02T21:58:47.370Z,21.76
2023-10-02T22:01:14.344Z,22.05
2023-10-02T22:03:42.637Z,22.39
2023-10-02T22:06:12.445Z,21.79
2023-10-02T22:08:40.492Z,22.18
2023-10-02T22:11:07.824Z,22.62
2023-10-02T22:13:34.689Z,22.82
2023-10-02T22:16:01.779Z,22.28
2023-10-02T22:18:32.927Z,22.68
2023-10-02T22:21:05.818Z,22.73
2023-10-02T22:23:37.355Z,22.92
2023-10-02T22:26:04.193Z,22.92
2023-10-02T22:28:36.114Z,22.08
2023-10-02T22:31:02.939Z,22.34
2023-10-02T22:33:32.596Z,22.57
2023-10-02T22:35:59.583Z,22.38
2023-10-02T22:38:26.555Z,22.64
2023-10-02T22:40:53.462Z,22.72
2023-10-02T22:43:21.672Z,22.74
2023-10-02T22:45:54.351Z,22.75
2023-10-02T22:48:21.217Z,21.70
2023-10-02T22:50:48.180Z,22.30
2023-10-02T22:53:15.258Z,22.42
2023-10-02T22:55:42.165Z,22.56
2023-10-02T22:58:09.083Z,22.11
2023-10-02T23:00:36.197Z,21.85
2023-10-02T23:03:03.633Z,22.20
2023-10-02T23:05:33.134Z,22.12
2023-10-02T23:08:00.178Z,22.31
2023-10-02T23:10:27.232Z,22.37
2023-10-02T23:12:54.672Z,21.76
2023-10-02T23:15:22.137Z,22.16
2023-10-02T23:17:50.432Z,22.31
2023-10-02T23:20:17.885Z,22.42
2023-10-02T23:22:46.298Z,22.02
2023-10-02T23:25:20.759Z,22.15
2023-10-02T23:27:49.236Z,22.13
2023-10-02T23:30:26.088Z,21.83
2023-10-02T23:33:00.412Z,21.98
2023-10-02T23:35:28.191Z,22.05
2023-10-02T23:37:59.935Z,22.15
2023-10-02T23:40:26.956Z,21.94
2023-10-02T23:42:54.340Z,21.79
2023-10-02T23:45:21.418Z,21.92
2023-10-02T23:47:48.443Z,22.07
2023-10-02T23:50:16.195Z,21.86
2023-10-02T23:52:46.434Z,21.97
2023-10-02T23:55:14.165Z,22.13
2023-10-02T23:57:41.876Z,22.16
